createdAt,value
2023-04-16T00:00:27.843Z,0.30
2023-04-16T00:01:27.666Z,0.20
2023-04-16T00:02:28.020Z,0.20
2023-04-16T00:03:27.830Z,0.20
2023-04-16T00:04:27.844Z,0.20
2023-04-16T00:05:27.652Z,0.60
2023-04-16T00:06:27.691Z,0.30
2023-04-16T00:07:27.589Z,0.30
2023-04-16T00:08:27.684Z,0.20
2023-04-16T00:09:27.584Z,0.30
2023-04-16T00:10:27.667Z,0.10
2023-04-16T00:11:27.548Z,0.30
2023-04-16T00:12:27.716Z,0.20
2023-04-16T00:13:27.636Z,0.10
2023-04-16T00:14:27.634Z,0.20
2023-04-16T00:15:27.509Z,0.10
2023-04-16T00:16:28.678Z,0.20
2023-04-16T00:17:27.508Z,0.10
2023-04-16T00:18:27.546Z,0.50
2023-04-16T00:19:27.466Z,0.20
2023-04-16T00:20:27.560Z,0.10
2023-04-16T00:21:27.457Z,0.20
2023-04-16T00:22:28.541Z,0.10
2023-04-16T00:23:27.430Z,0.20
2023-04-16T00:24:27.467Z,0.30
2023-04-16T00:25:27.415Z,0.30
2023-04-16T00:26:27.508Z,0.10
2023-04-16T00:27:27.519Z,0.70
2023-04-16T00:28:28.413Z,0.30
2023-04-16T00:29:27.366Z,0.20
2023-04-16T00:30:27.500Z,0.60
2023-04-16T00:31:27.409Z,0.40
2023-04-16T00:32:27.535Z,0.30
2023-04-16T00:33:27.336Z,0.30
2023-04-16T00:34:27.434Z,0.20
2023-04-16T00:35:27.322Z,0.10
2023-04-16T00:36:27.454Z,0.10
2023-04-16T00:37:27.279Z,0.30
2023-04-16T00:38:27.389Z,0.20
2023-04-16T00:39:27.262Z,0.20
2023-04-16T00:40:27.446Z,0.20
2023-04-16T00:41:27.272Z,0.30
2023-04-16T00:42:27.279Z,0.20
2023-04-16T00:43:27.222Z,0.20
2023-04-16T00:44:27.328Z,0.30
2023-04-16T00:45:27.192Z,0.30
2023-04-16T00:46:27.376Z,0.60
2023-04-16T00:47:27.274Z,0.20
2023-04-16T00:48:27.284Z,0.50
2023-04-16T00:49:27.160Z,0.10
2023-04-16T00:50:27.247Z,0.40
2023-04-16T00:51:27.169Z,0.30
2023-04-16T00:52:27.293Z,0.40
2023-04-16T00:53:27.128Z,0.40
2023-04-16T00:54:27.252Z,0.40
2023-04-16T00:55:27.103Z,0.20
2023-04-16T00:56:27.185Z,0.20
2023-04-16T00:57:27.097Z,0.20
2023-04-16T00:58:27.206Z,0.50
2023-04-16T00:59:27.070Z,1.00
2023-04-16T01:00:27.117Z,0.30
2023-04-16T01:01:27.065Z,0.50
2023-04-16T01:02:27.308Z,0.40
2023-04-16T01:03:27.288Z,0.20
2023-04-16T01:04:28.267Z,0.10
2023-04-16T01:05:27.005Z,0.10
2023-04-16T01:06:48.104Z,0.20
2023-04-16T01:07:26.985Z,0.20
2023-04-16T01:08:28.118Z,0.30
2023-04-16T01:09:26.942Z,0.20
2023-04-16T01:10:28.098Z,0.50
2023-04-16T01:11:26.935Z,0.10
2023-04-16T01:12:28.124Z,0.40
2023-04-16T01:13:26.921Z,0.20
2023-04-16T01:14:27.016Z,0.30
2023-04-16T01:15:26.899Z,0.10
2023-04-16T01:16:27.149Z,0.30
2023-04-16T01:17:27.252Z,0.30
2023-04-16T01:18:27.048Z,0.20
2023-04-16T01:19:26.865Z,0.60
2023-04-16T01:20:26.960Z,0.50
2023-04-16T01:21:26.823Z,0.20
2023-04-16T01:22:26.982Z,0.20
2023-04-16T01:23:26.813Z,0.60
2023-04-16T01:24:26.982Z,0.70
2023-04-16T01:25:26.932Z,0.30
2023-04-16T01:26:26.965Z,0.40
2023-04-16T01:27:26.789Z,0.30
2023-04-16T01:28:26.929Z,0.30
2023-04-16T01:29:26.774Z,0.20
2023-04-16T01:30:26.930Z,0.20
2023-04-16T01:31:26.818Z,0.20
2023-04-16T01:32:26.894Z,0.20
2023-04-16T01:33:26.731Z,0.20
2023-04-16T01:34:26.849Z,0.30
2023-04-16T01:35:26.708Z,0.30
2023-04-16T01:36:26.854Z,0.20
2023-04-16T01:37:26.665Z,0.40
2023-04-16T01:38:26.800Z,0.40
2023-04-16T01:39:26.687Z,0.70
2023-04-16T01:40:26.807Z,0.50
2023-04-16T01:41:26.641Z,0.30
2023-04-16T01:42:26.861Z,0.50
2023-04-16T01:43:26.628Z,0.20
2023-04-16T01:44:26.746Z,0.20
2023-04-16T01:45:26.588Z,0.30
2023-04-16T01:46:26.785Z,0.30
2023-04-16T01:47:26.658Z,0.20
2023-04-16T01:48:26.756Z,0.30
2023-04-16T01:49:26.553Z,0.40
2023-04-16T01:50:27.698Z,0.50
2023-04-16T01:51:26.537Z,0.50
2023-04-16T01:52:26.701Z,0.80
2023-04-16T01:53:26.500Z,0.90
2023-04-16T01:54:26.739Z,0.20
2023-04-16T01:55:26.554Z,0.60
2023-04-16T01:56:27.631Z,0.60
2023-04-16T01:57:26.493Z,0.30
2023-04-16T01:58:27.673Z,0.30
2023-04-16T01:59:26.476Z,0.40
2023-04-16T02:00:27.627Z,0.20
2023-04-16T02:01:26.534Z,0.50
2023-04-16T02:02:26.728Z,0.70
2023-04-16T02:03:26.633Z,1.10
2023-04-16T02:04:26.545Z,0.50
2023-04-16T02:05:26.385Z,0.50
2023-04-16T02:06:26.595Z,0.40
2023-04-16T02:07:26.389Z,0.40
2023-04-16T02:08:26.479Z,0.30
2023-04-16T02:09:26.844Z,0.20
2023-04-16T02:10:26.494Z,0.60
2023-04-16T02:11:26.342Z,1.20
2023-04-16T02:12:26.539Z,0.80
2023-04-16T02:13:26.307Z,0.20
2023-04-16T02:14:26.412Z,0.30
2023-04-16T02:15:26.294Z,0.30
2023-04-16T02:16:26.636Z,0.40
2023-04-16T02:17:26.344Z,0.20
2023-04-16T02:18:26.437Z,0.70
2023-04-16T02:19:26.254Z,0.10
2023-04-16T02:20:26.354Z,0.20
2023-04-16T02:21:26.222Z,0.90
2023-04-16T02:22:26.454Z,0.30
2023-04-16T02:23:26.218Z,0.40
2023-04-16T02:24:26.309Z,0.30
2023-04-16T02:25:26.182Z,0.40
2023-04-16T02:26:26.297Z,0.40
2023-04-16T02:27:26.184Z,0.40
2023-04-16T02:28:26.233Z,0.40
2023-04-16T02:29:26.146Z,0.40
2023-04-16T02:30:26.228Z,0.30
2023-04-16T02:31:26.133Z,0.30
2023-04-16T02:32:26.219Z,0.40
2023-04-16T02:33:26.111Z,0.20
2023-04-16T02:34:26.165Z,0.40
2023-04-16T02:35:26.080Z,0.20
2023-04-16T02:36:27.176Z,0.20
2023-04-16T02:37:26.075Z,0.30
2023-04-16T02:38:26.194Z,0.40
2023-04-16T02:39:26.029Z,0.40
2023-04-16T02:40:47.126Z,0.40
2023-04-16T02:41:26.011Z,0.40
2023-04-16T02:42:26.272Z,0.10
2023-04-16T02:43:26.000Z,0.40
2023-04-16T02:44:27.029Z,0.30
2023-04-16T02:45:25.970Z,0.20
2023-04-16T02:46:26.071Z,0.30
2023-04-16T02:47:25.983Z,0.20
2023-04-16T02:48:26.034Z,0.10
2023-04-16T02:49:25.946Z,0.30
2023-04-16T02:50:26.112Z,0.30
2023-04-16T02:51:25.916Z,0.20
2023-04-16T02:52:25.997Z,0.30
2023-04-16T02:53:26.094Z,0.30
2023-04-16T02:54:25.996Z,0.10
2023-04-16T02:55:25.869Z,0.10
2023-04-16T02:56:25.989Z,0.30
2023-04-16T02:57:25.871Z,0.40
2023-04-16T02:58:25.955Z,0.40
2023-04-16T02:59:25.836Z,0.30
2023-04-16T03:00:25.925Z,0.20
2023-04-16T03:01:25.906Z,0.10
2023-04-16T03:02:26.039Z,0.90
2023-04-16T03:03:28.712Z,0.20
2023-04-16T03:04:25.932Z,0.30
2023-04-16T03:05:25.784Z,0.30
2023-04-16T03:06:25.861Z,0.10
2023-04-16T03:07:25.783Z,0.10
2023-04-16T03:08:25.936Z,0.20
2023-04-16T03:09:25.736Z,0.20
2023-04-16T03:10:25.809Z,0.10
2023-04-16T03:11:25.714Z,0.20
2023-04-16T03:12:25.795Z,0.30
2023-04-16T03:13:25.819Z,0.20
2023-04-16T03:14:25.822Z,0.10
2023-04-16T03:15:25.714Z,0.40
2023-04-16T03:16:25.728Z,0.10
2023-04-16T03:17:25.694Z,0.50
2023-04-16T03:18:25.736Z,0.10
2023-04-16T03:19:25.640Z,0.10
2023-04-16T03:20:25.787Z,0.20
2023-04-16T03:21:25.616Z,0.30
2023-04-16T03:22:26.709Z,0.10
2023-04-16T03:23:25.681Z,0.10
2023-04-16T03:24:25.778Z,0.10
2023-04-16T03:25:25.572Z,0.30
2023-04-16T03:26:25.695Z,0.20
2023-04-16T03:27:25.558Z,0.20
2023-04-16T03:28:25.856Z,0.40
2023-04-16T03:29:25.525Z,0.40
2023-04-16T03:30:25.646Z,0.10
2023-04-16T03:31:25.529Z,0.20
2023-04-16T03:32:27.593Z,0.30
2023-04-16T03:33:25.501Z,0.10
2023-04-16T03:34:25.697Z,0.30
2023-04-16T03:35:25.459Z,0.20
2023-04-16T03:36:25.571Z,0.40
2023-04-16T03:37:25.516Z,0.10
2023-04-16T03:38:25.615Z,0.10
2023-04-16T03:39:25.443Z,0.10
2023-04-16T03:40:26.577Z,0.10
2023-04-16T03:41:25.412Z,0.20
2023-04-16T03:42:25.509Z,0.30
2023-04-16T03:43:25.394Z,0.20
2023-04-16T03:44:25.633Z,0.20
2023-04-16T03:45:25.360Z,0.10
2023-04-16T03:46:25.567Z,0.20
2023-04-16T03:47:25.366Z,0.10
2023-04-16T03:48:25.483Z,0.30
2023-04-16T03:49:25.337Z,0.30
2023-04-16T03:50:25.456Z,0.10
2023-04-16T03:51:25.301Z,0.20
2023-04-16T03:52:25.591Z,0.10
2023-04-16T03:53:25.284Z,0.30
2023-04-16T03:54:25.510Z,0.10
2023-04-16T03:55:25.260Z,0.40
2023-04-16T03:56:25.412Z,0.10
2023-04-16T03:57:25.260Z,0.20
2023-04-16T03:58:25.437Z,0.30
2023-04-16T03:59:25.238Z,0.10
2023-04-16T04:00:25.338Z,0.30
2023-04-16T04:01:25.214Z,0.20
2023-04-16T04:02:26.077Z,0.10
2023-04-16T04:03:25.497Z,0.40
2023-04-16T04:04:25.865Z,0.20
2023-04-16T04:05:25.191Z,0.20
2023-04-16T04:06:25.286Z,0.20
2023-04-16T04:07:25.142Z,0.10
2023-04-16T04:08:25.288Z,0.30
2023-04-16T04:09:25.128Z,0.20
2023-04-16T04:10:25.333Z,0.20
2023-04-16T04:11:25.095Z,0.10
2023-04-16T04:12:25.279Z,0.20
2023-04-16T04:13:25.083Z,0.30
2023-04-16T04:14:25.345Z,0.30
2023-04-16T04:15:25.061Z,0.10
2023-04-16T04:16:25.376Z,0.20
2023-04-16T04:17:25.050Z,0.10
2023-04-16T04:18:25.160Z,0.20
2023-04-16T04:19:25.023Z,0.10
2023-04-16T04:20:27.217Z,0.30
2023-04-16T04:21:25.016Z,0.10
2023-04-16T04:22:26.098Z,0.20
2023-04-16T04:23:24.979Z,0.20
2023-04-16T04:24:25.278Z,0.30
2023-04-16T04:25:24.953Z,0.20
2023-04-16T04:26:27.156Z,0.20
2023-04-16T04:27:24.942Z,0.40
2023-04-16T04:28:26.068Z,0.10
2023-04-16T04:29:24.921Z,0.40
2023-04-16T04:30:25.030Z,0.20
2023-04-16T04:31:24.942Z,0.20
2023-04-16T04:32:25.125Z,0.10
2023-04-16T04:33:24.883Z,0.30
2023-04-16T04:34:25.186Z,0.20
2023-04-16T04:35:24.882Z,0.10
2023-04-16T04:36:25.027Z,0.10
2023-04-16T04:37:24.842Z,0.60
2023-04-16T04:38:25.050Z,0.30
2023-04-16T04:39:24.823Z,0.20
2023-04-16T04:40:24.996Z,0.10
2023-04-16T04:41:24.803Z,0.20
2023-04-16T04:42:24.946Z,0.70
2023-04-16T04:43:24.783Z,0.30
2023-04-16T04:44:24.921Z,0.20
2023-04-16T04:45:24.802Z,0.20
2023-04-16T04:46:24.884Z,0.20
2023-04-16T04:47:24.783Z,0.20
2023-04-16T04:48:24.918Z,0.40
2023-04-16T04:49:24.731Z,0.40
2023-04-16T04:50:24.770Z,0.70
2023-04-16T04:51:24.715Z,0.30
2023-04-16T04:52:24.894Z,0.20
2023-04-16T04:53:24.712Z,0.10
2023-04-16T04:54:24.815Z,0.60
2023-04-16T04:55:24.667Z,0.50
2023-04-16T04:56:24.721Z,0.30
2023-04-16T04:57:24.778Z,0.50
2023-04-16T04:58:24.818Z,0.30
2023-04-16T04:59:24.611Z,0.60
2023-04-16T05:00:24.889Z,0.30
2023-04-16T05:01:24.643Z,0.30
2023-04-16T05:02:25.783Z,0.10
2023-04-16T05:03:25.465Z,0.20
2023-04-16T05:04:26.628Z,0.20
2023-04-16T05:05:24.568Z,0.30
2023-04-16T05:06:27.291Z,0.20
2023-04-16T05:07:24.543Z,0.60
2023-04-16T05:08:24.679Z,0.30
2023-04-16T05:09:24.517Z,0.30
2023-04-16T05:10:24.617Z,0.30
2023-04-16T05:11:24.506Z,0.60
2023-04-16T05:12:24.548Z,0.50
2023-04-16T05:13:24.467Z,0.30
2023-04-16T05:14:24.575Z,0.60
2023-04-16T05:15:24.519Z,0.50
2023-04-16T05:16:24.715Z,0.40
2023-04-16T05:17:24.454Z,0.40
2023-04-16T05:18:24.590Z,0.50
2023-04-16T05:19:24.418Z,0.40
2023-04-16T05:20:24.485Z,0.40
2023-04-16T05:21:24.466Z,0.40
2023-04-16T05:22:24.542Z,0.30
2023-04-16T05:23:24.449Z,0.20
2023-04-16T05:24:24.508Z,0.50
2023-04-16T05:25:24.396Z,0.30
2023-04-16T05:26:24.440Z,0.40
2023-04-16T05:27:24.448Z,0.60
2023-04-16T05:28:24.516Z,0.50
2023-04-16T05:29:24.394Z,0.70
2023-04-16T05:30:24.478Z,0.70
2023-04-16T05:31:24.372Z,0.60
2023-04-16T05:32:24.384Z,0.50
2023-04-16T05:33:25.336Z,0.60
2023-04-16T05:34:24.389Z,0.50
2023-04-16T05:35:24.268Z,0.30
2023-04-16T05:36:24.367Z,0.50
2023-04-16T05:37:24.231Z,0.20
2023-04-16T05:38:24.307Z,0.40
2023-04-16T05:39:24.231Z,0.50
2023-04-16T05:40:24.312Z,0.40
2023-04-16T05:41:24.184Z,0.30
2023-04-16T05:42:24.312Z,0.20
2023-04-16T05:43:24.220Z,0.60
2023-04-16T05:44:24.279Z,0.10
2023-04-16T05:45:25.612Z,0.30
2023-04-16T05:46:24.337Z,0.30
2023-04-16T05:47:24.167Z,0.20
2023-04-16T05:48:24.305Z,0.50
2023-04-16T05:49:24.224Z,0.30
2023-04-16T05:50:25.191Z,0.20
2023-04-16T05:51:24.149Z,0.50
2023-04-16T05:52:26.284Z,0.30
2023-04-16T05:53:24.077Z,0.30
2023-04-16T05:54:25.241Z,0.30
2023-04-16T05:55:24.041Z,0.80
2023-04-16T05:56:26.164Z,0.90
2023-04-16T05:57:24.030Z,0.50
2023-04-16T05:58:27.327Z,0.60
2023-04-16T05:59:24.002Z,0.50
2023-04-16T06:00:26.087Z,0.20
2023-04-16T06:01:24.030Z,0.10
2023-04-16T06:02:25.319Z,0.20
2023-04-16T06:03:24.182Z,0.30
2023-04-16T06:04:24.106Z,0.50
2023-04-16T06:05:24.013Z,0.40
2023-04-16T06:06:24.102Z,0.10
2023-04-16T06:07:23.935Z,0.50
2023-04-16T06:08:24.059Z,0.70
2023-04-16T06:09:23.990Z,0.40
2023-04-16T06:10:24.042Z,0.50
2023-04-16T06:11:23.892Z,0.30
2023-04-16T06:12:24.043Z,0.20
2023-04-16T06:13:23.957Z,0.40
2023-04-16T06:14:23.974Z,0.50
2023-04-16T06:15:23.868Z,0.40
2023-04-16T06:16:24.020Z,0.20
2023-04-16T06:17:23.845Z,0.20
2023-04-16T06:18:24.054Z,0.50
2023-04-16T06:19:23.816Z,0.40
2023-04-16T06:20:24.016Z,0.20
2023-04-16T06:21:23.789Z,0.30
2023-04-16T06:22:23.890Z,0.50
2023-04-16T06:23:23.771Z,0.30
2023-04-16T06:24:23.991Z,0.30
2023-04-16T06:25:23.773Z,0.20
2023-04-16T06:26:23.918Z,0.20
2023-04-16T06:27:23.728Z,0.20
2023-04-16T06:28:23.844Z,0.40
2023-04-16T06:29:30.688Z,0.20
2023-04-16T06:30:23.695Z,0.40
2023-04-16T06:31:23.882Z,0.30
2023-04-16T06:32:23.704Z,0.40
2023-04-16T06:33:23.882Z,0.50
2023-04-16T06:34:23.667Z,0.30
2023-04-16T06:35:23.810Z,0.20
2023-04-16T06:36:23.660Z,0.60
2023-04-16T06:37:23.789Z,0.20
2023-04-16T06:38:23.624Z,0.40
2023-04-16T06:39:23.752Z,0.40
2023-04-16T06:40:23.593Z,0.20
2023-04-16T06:41:24.736Z,0.40
2023-04-16T06:42:23.561Z,0.40
2023-04-16T06:43:24.759Z,0.10
2023-04-16T06:44:23.562Z,0.20
2023-04-16T06:45:25.740Z,0.90
2023-04-16T06:46:23.575Z,1.10
2023-04-16T07:01:02.151Z,1.40
2023-04-16T07:02:02.978Z,1.60
2023-04-16T07:03:03.257Z,1.50
2023-04-16T07:04:03.020Z,2.00
2023-04-16T07:05:03.107Z,2.00
2023-04-16T07:06:02.901Z,2.70
2023-04-16T07:07:03.020Z,0.60
2023-04-16T07:08:02.857Z,4.20
2023-04-16T07:09:02.969Z,1.90
2023-04-16T07:10:02.837Z,0.60
2023-04-16T07:11:02.949Z,0.20
2023-04-16T07:12:02.801Z,0.60
2023-04-16T07:13:02.906Z,0.90
2023-04-16T07:14:02.804Z,0.50
2023-04-16T07:15:03.901Z,0.10
2023-04-16T07:16:02.787Z,0.70
2023-04-16T07:17:02.935Z,0.60
2023-04-16T07:18:02.780Z,0.50
2023-04-16T07:19:05.998Z,0.50
2023-04-16T07:20:02.763Z,0.60
2023-04-16T07:22:18.935Z,2.30
2023-04-16T07:23:19.861Z,3.00
2023-04-16T07:24:19.976Z,3.60
2023-04-16T07:25:19.850Z,3.00
2023-04-16T07:26:19.933Z,2.80
2023-04-16T07:27:19.812Z,3.20
2023-04-16T07:28:43.987Z,0.90
2023-04-16T07:29:19.852Z,1.80
2023-04-16T07:30:41.113Z,0.90
2023-04-16T07:31:19.930Z,1.10
2023-04-16T07:33:38.719Z,2.50
2023-04-16T07:34:39.776Z,2.80
2023-04-16T07:35:39.820Z,3.20
2023-04-16T07:36:39.669Z,2.80
2023-04-16T07:37:39.824Z,2.80
2023-04-16T07:38:39.660Z,1.90
2023-04-16T07:39:39.792Z,0.30
2023-04-16T07:40:39.641Z,0.60
2023-04-16T07:41:39.709Z,0.50
2023-04-16T07:42:39.614Z,0.30
2023-04-16T07:43:39.748Z,0.40
2023-04-16T07:44:39.625Z,1.50
2023-04-16T07:45:41.372Z,1.40
2023-04-16T07:46:47.108Z,1.70
2023-04-16T07:47:39.633Z,1.70
2023-04-16T07:48:39.658Z,1.70
2023-04-16T07:49:39.566Z,1.20
2023-04-16T07:50:39.980Z,2.30
2023-04-16T07:51:39.555Z,1.70
2023-04-16T07:52:40.325Z,1.90
2023-04-16T07:53:39.662Z,2.30
2023-04-16T07:54:39.733Z,1.60
2023-04-16T07:55:39.480Z,1.80
2023-04-16T07:56:39.484Z,1.60
2023-04-16T07:57:39.698Z,1.50
2023-04-16T07:58:39.455Z,1.70
2023-04-16T07:59:39.642Z,1.30
2023-04-16T08:00:39.460Z,1.40
2023-04-16T08:01:39.594Z,1.60
2023-04-16T08:02:39.527Z,1.70
2023-04-16T08:03:39.768Z,1.80
2023-04-16T08:04:39.592Z,1.70
2023-04-16T08:05:39.472Z,2.30
2023-04-16T08:06:39.398Z,2.00
2023-04-16T08:07:39.503Z,1.50
2023-04-16T08:08:39.357Z,2.30
2023-04-16T08:09:39.566Z,2.10
2023-04-16T08:10:39.333Z,1.80
2023-04-16T08:11:39.424Z,0.80
2023-04-16T08:12:39.315Z,2.00
2023-04-16T08:13:39.431Z,1.30
2023-04-16T08:14:39.293Z,1.20
2023-04-16T08:15:39.395Z,1.70
2023-04-16T08:16:39.286Z,2.30
2023-04-16T08:17:39.401Z,1.40
2023-04-16T08:18:39.256Z,1.70
2023-04-16T08:19:39.394Z,2.40
2023-04-16T08:20:39.252Z,2.00
2023-04-16T08:21:40.310Z,1.90
2023-04-16T08:22:39.222Z,2.40
2023-04-16T08:23:39.327Z,3.20
2023-04-16T08:24:39.196Z,2.00
2023-04-16T08:25:39.360Z,1.60
2023-04-16T08:26:39.180Z,1.90
2023-04-16T08:27:39.303Z,2.00
2023-04-16T08:28:39.147Z,2.70
2023-04-16T08:29:39.203Z,2.40
2023-04-16T08:30:39.150Z,2.00
2023-04-16T08:31:39.236Z,1.40
2023-04-16T08:32:39.154Z,1.60
2023-04-16T08:33:39.194Z,3.00
2023-04-16T08:34:39.097Z,2.90
2023-04-16T08:35:39.122Z,2.50
2023-04-16T08:36:39.095Z,2.00
2023-04-16T08:37:39.196Z,2.00
2023-04-16T08:38:39.055Z,1.90
2023-04-16T08:39:39.133Z,2.30
2023-04-16T08:40:39.048Z,1.70
2023-04-16T08:41:39.074Z,2.40
2023-04-16T08:42:39.013Z,2.50
2023-04-16T08:43:39.128Z,2.20
2023-04-16T08:44:38.984Z,2.50
2023-04-16T08:45:39.138Z,2.90
2023-04-16T08:46:39.061Z,2.50
2023-04-16T08:47:39.033Z,3.20
2023-04-16T08:48:38.961Z,4.10
2023-04-16T08:49:38.999Z,2.70
2023-04-16T08:50:38.946Z,3.10
2023-04-16T08:51:39.054Z,1.80
2023-04-16T08:52:38.913Z,2.30
2023-04-16T08:53:39.019Z,2.20
2023-04-16T08:54:38.892Z,1.70
2023-04-16T08:55:38.929Z,2.00
2023-04-16T08:56:39.842Z,1.90
2023-04-16T08:57:39.048Z,2.60
2023-04-16T08:58:38.849Z,2.00
2023-04-16T08:59:38.960Z,1.80
2023-04-16T09:00:38.837Z,3.00
2023-04-16T09:01:38.952Z,2.50
2023-04-16T09:02:39.008Z,2.60
2023-04-16T09:03:39.085Z,2.30
2023-04-16T09:04:38.898Z,2.50
2023-04-16T09:05:38.821Z,2.60
2023-04-16T09:06:38.766Z,2.60
2023-04-16T09:07:38.880Z,2.30
2023-04-16T09:08:38.752Z,2.50
2023-04-16T09:09:38.823Z,1.90
2023-04-16T09:10:38.733Z,2.70
2023-04-16T09:11:38.845Z,3.80
2023-04-16T09:12:38.719Z,2.40
2023-04-16T09:13:38.733Z,1.70
2023-04-16T09:14:38.694Z,3.80
2023-04-16T09:15:38.809Z,2.20
2023-04-16T09:16:38.885Z,1.50
2023-04-16T09:17:38.772Z,1.90
2023-04-16T09:18:38.650Z,2.80
2023-04-16T09:19:38.700Z,3.30
2023-04-16T09:20:38.644Z,2.00
2023-04-16T09:21:38.687Z,2.20
2023-04-16T09:22:38.622Z,2.90
2023-04-16T09:23:38.850Z,2.30
2023-04-16T09:24:38.793Z,2.20
2023-04-16T09:25:38.662Z,2.60
2023-04-16T09:26:38.565Z,1.90
2023-04-16T09:27:38.655Z,2.00
2023-04-16T09:28:38.549Z,2.30
2023-04-16T09:29:38.646Z,1.70
2023-04-16T09:30:38.560Z,1.20
2023-04-16T09:31:38.698Z,2.10
2023-04-16T09:32:38.612Z,1.90
2023-04-16T09:33:38.633Z,3.30
2023-04-16T09:34:38.506Z,2.50
2023-04-16T09:35:38.573Z,3.40
2023-04-16T09:36:38.508Z,1.30
2023-04-16T09:37:38.555Z,2.10
2023-04-16T09:38:38.451Z,1.50
2023-04-16T09:39:38.517Z,2.80
2023-04-16T09:40:38.431Z,2.40
2023-04-16T09:41:38.537Z,1.60
2023-04-16T09:42:38.406Z,1.70
2023-04-16T09:43:38.514Z,2.10
2023-04-16T09:44:38.395Z,3.30
2023-04-16T09:45:38.472Z,1.20
2023-04-16T09:46:38.367Z,2.20
2023-04-16T09:47:38.471Z,2.10
2023-04-16T09:48:38.372Z,1.80
2023-04-16T09:49:38.366Z,1.90
2023-04-16T09:50:38.321Z,1.90
2023-04-16T09:51:38.451Z,1.30
2023-04-16T09:52:38.300Z,1.10
2023-04-16T09:53:38.394Z,2.00
2023-04-16T09:54:38.287Z,1.80
2023-04-16T09:55:38.293Z,2.10
2023-04-16T09:56:38.261Z,1.20
2023-04-16T09:57:38.347Z,1.00
2023-04-16T09:58:38.246Z,1.30
2023-04-16T09:59:38.324Z,1.10
2023-04-16T10:00:43.255Z,1.60
2023-04-16T10:01:38.300Z,1.40
2023-04-16T10:02:38.389Z,1.80
2023-04-16T10:03:38.365Z,1.10
2023-04-16T10:04:38.276Z,1.90
2023-04-16T10:05:38.208Z,2.30
2023-04-16T10:06:38.197Z,2.10
2023-04-16T10:07:38.139Z,2.10
2023-04-16T10:08:38.222Z,2.50
2023-04-16T10:09:38.129Z,2.40
2023-04-16T10:10:38.200Z,2.70
2023-04-16T10:11:38.140Z,2.90
2023-04-16T10:12:38.190Z,1.50
2023-04-16T10:13:38.082Z,1.80
2023-04-16T10:14:38.134Z,2.20
2023-04-16T10:15:38.088Z,1.40
2023-04-16T10:16:38.148Z,1.30
2023-04-16T10:17:38.080Z,2.00
2023-04-16T10:18:38.200Z,2.00
2023-04-16T10:19:38.062Z,2.60
2023-04-16T10:20:38.139Z,1.70
2023-04-16T10:21:38.009Z,1.60
2023-04-16T10:22:38.063Z,2.20
2023-04-16T10:23:37.983Z,1.40
2023-04-16T10:24:38.136Z,1.40
2023-04-16T10:25:37.961Z,2.20
2023-04-16T10:26:38.033Z,1.40
2023-04-16T10:27:37.939Z,1.90
2023-04-16T10:28:40.173Z,1.80
2023-04-16T10:29:40.339Z,1.70
2023-04-16T10:30:38.068Z,1.00
2023-04-16T10:31:37.909Z,2.00
2023-04-16T10:32:40.057Z,2.00
2023-04-16T10:33:37.874Z,1.80
2023-04-16T10:34:37.946Z,1.00
2023-04-16T10:35:37.857Z,1.90
2023-04-16T10:36:37.861Z,1.40
2023-04-16T10:37:37.838Z,1.50
2023-04-16T10:38:37.903Z,1.70
2023-04-16T10:39:37.829Z,2.30
2023-04-16T10:40:38.972Z,3.10
2023-04-16T10:41:37.799Z,2.60
2023-04-16T10:42:39.948Z,3.70
2023-04-16T10:43:37.780Z,2.60
2023-04-16T10:44:37.889Z,2.40
2023-04-16T10:45:37.774Z,1.50
2023-04-16T10:46:38.081Z,2.20
2023-04-16T10:47:37.787Z,1.40
2023-04-16T10:48:48.737Z,1.60
2023-04-16T10:49:37.784Z,2.00
2023-04-16T10:50:37.849Z,2.20
2023-04-16T10:51:37.692Z,1.30
2023-04-16T10:52:37.832Z,1.10
2023-04-16T10:53:37.667Z,1.70
2023-04-16T10:54:37.819Z,1.90
2023-04-16T10:55:37.665Z,2.70
2023-04-16T10:56:37.828Z,1.60
2023-04-16T10:57:37.646Z,1.90
2023-04-16T10:58:37.766Z,1.50
2023-04-16T10:59:37.649Z,1.30
2023-04-16T11:00:37.816Z,2.10
2023-04-16T11:01:37.844Z,2.00
2023-04-16T11:02:38.144Z,2.00
2023-04-16T11:03:37.768Z,2.10
2023-04-16T11:04:37.937Z,1.80
2023-04-16T11:05:37.559Z,1.50
2023-04-16T11:06:37.737Z,2.50
2023-04-16T11:07:37.633Z,1.30
2023-04-16T11:08:47.498Z,2.10
2023-04-16T11:09:37.532Z,2.10
2023-04-16T11:10:38.651Z,2.40
2023-04-16T11:11:37.582Z,3.10
2023-04-16T11:12:38.291Z,1.40
2023-04-16T11:13:37.486Z,2.30
2023-04-16T11:14:37.699Z,2.50
2023-04-16T11:15:37.457Z,1.50
2023-04-16T11:16:37.559Z,1.60
2023-04-16T11:17:37.517Z,2.20
2023-04-16T11:18:37.580Z,2.50
2023-04-16T11:19:37.400Z,1.50
2023-04-16T11:20:37.591Z,2.00
2023-04-16T11:21:37.376Z,2.50
2023-04-16T11:22:38.544Z,2.60
2023-04-16T11:23:37.372Z,2.30
2023-04-16T11:24:37.526Z,2.10
2023-04-16T11:25:37.368Z,2.10
2023-04-16T11:26:37.557Z,1.30
2023-04-16T11:27:37.333Z,1.40
2023-04-16T11:30:30.436Z,5.90
2023-04-16T11:31:31.377Z,5.90
2023-04-16T11:32:54.539Z,6.40
2023-04-16T11:33:31.334Z,6.10
2023-04-16T11:34:31.444Z,6.60
2023-04-16T11:35:31.332Z,6.90
2023-04-16T11:36:31.475Z,7.20
2023-04-16T11:37:31.303Z,3.80
2023-04-16T11:38:31.508Z,1.10
2023-04-16T11:39:31.288Z,2.00
2023-04-16T11:40:31.531Z,2.70
2023-04-16T11:41:31.268Z,1.50
2023-04-16T11:42:31.459Z,2.40
2023-04-16T11:43:31.245Z,2.00
2023-04-16T11:44:31.425Z,2.50
2023-04-16T11:45:31.253Z,2.20
2023-04-16T11:46:31.356Z,2.20
2023-04-16T11:47:31.350Z,2.10
2023-04-16T11:48:31.344Z,3.00
2023-04-16T11:49:31.222Z,2.10
2023-04-16T11:50:32.642Z,2.20
2023-04-16T11:51:31.161Z,2.30
2023-04-16T11:52:31.306Z,1.80
2023-04-16T11:53:31.154Z,1.30
2023-04-16T11:54:31.292Z,2.90
2023-04-16T11:55:31.151Z,3.30
2023-04-16T11:56:31.232Z,1.50
2023-04-16T11:57:31.111Z,1.70
2023-04-16T11:58:31.269Z,2.40
2023-04-16T11:59:31.079Z,2.10
2023-04-16T12:00:31.143Z,1.70
2023-04-16T12:01:31.073Z,2.40
2023-04-16T12:02:31.196Z,2.10
2023-04-16T12:03:31.252Z,2.10
2023-04-16T12:04:31.339Z,2.00
2023-04-16T12:05:31.084Z,2.00
2023-04-16T12:06:31.143Z,2.20
2023-04-16T12:07:30.999Z,2.20
2023-04-16T12:08:31.091Z,1.80
2023-04-16T12:09:30.970Z,1.50
2023-04-16T12:10:31.143Z,1.30
2023-04-16T12:11:30.969Z,2.00
2023-04-16T12:12:33.074Z,1.00
2023-04-16T12:13:30.930Z,2.30
2023-04-16T12:14:32.036Z,1.00
2023-04-16T12:15:30.905Z,1.10
2023-04-16T12:16:31.021Z,2.20
2023-04-16T12:17:30.918Z,1.10
2023-04-16T12:18:30.970Z,1.60
2023-04-16T12:19:30.876Z,1.70
2023-04-16T12:20:30.992Z,1.30
2023-04-16T12:21:30.889Z,1.10
2023-04-16T12:22:30.993Z,2.10
2023-04-16T12:23:30.837Z,0.80
2023-04-16T12:24:30.903Z,1.30
2023-04-16T12:25:30.822Z,1.30
2023-04-16T12:26:30.954Z,1.50
2023-04-16T12:27:30.782Z,1.30
2023-04-16T12:28:30.917Z,1.60
2023-04-16T12:29:30.767Z,1.60
2023-04-16T12:30:31.003Z,1.40
2023-04-16T12:31:30.766Z,1.60
2023-04-16T12:32:30.931Z,0.80
2023-04-16T12:33:30.722Z,1.20
2023-04-16T12:34:48.619Z,1.30
2023-04-16T12:35:30.712Z,1.70
2023-04-16T12:36:30.800Z,1.20
2023-04-16T12:37:30.911Z,1.60
2023-04-16T12:38:30.793Z,1.60
2023-04-16T12:39:30.662Z,1.60
2023-04-16T12:40:30.803Z,1.00
2023-04-16T12:41:30.640Z,1.30
2023-04-16T12:42:30.738Z,2.10
2023-04-16T12:43:30.650Z,1.20
2023-04-16T12:44:30.772Z,1.80
2023-04-16T12:45:30.620Z,2.10
2023-04-16T12:46:30.824Z,1.20
2023-04-16T12:47:30.602Z,1.30
2023-04-16T12:48:30.677Z,1.00
2023-04-16T12:49:30.552Z,1.90
2023-04-16T12:50:30.697Z,1.60
2023-04-16T12:51:30.558Z,1.60
2023-04-16T12:52:30.727Z,1.40
2023-04-16T12:53:30.519Z,1.30
2023-04-16T12:54:31.759Z,1.30
2023-04-16T12:55:30.499Z,1.10
2023-04-16T12:56:30.611Z,1.10
2023-04-16T12:57:30.489Z,1.60
2023-04-16T12:58:30.683Z,0.60
2023-04-16T12:59:30.545Z,0.90
2023-04-16T13:00:32.581Z,1.50
2023-04-16T13:01:30.481Z,0.70
2023-04-16T13:02:32.736Z,1.10
2023-04-16T13:03:30.535Z,1.10
2023-04-16T13:04:31.594Z,1.30
2023-04-16T13:05:30.519Z,1.30
2023-04-16T13:06:30.472Z,1.30
2023-04-16T13:07:30.362Z,1.30
2023-04-16T13:08:32.470Z,2.20
2023-04-16T13:09:30.342Z,1.70
2023-04-16T13:10:30.504Z,1.20
2023-04-16T13:11:30.362Z,0.70
2023-04-16T13:12:30.412Z,1.00
2023-04-16T13:13:30.322Z,1.40
2023-04-16T13:14:30.441Z,1.00
2023-04-16T13:15:30.325Z,0.90
2023-04-16T13:16:30.458Z,1.80
2023-04-16T13:17:30.364Z,1.20
2023-04-16T13:18:30.443Z,0.70
2023-04-16T13:19:30.245Z,0.80
2023-04-16T13:20:30.531Z,0.80
2023-04-16T13:21:30.253Z,0.80
2023-04-16T13:22:30.391Z,1.20
2023-04-16T13:23:30.205Z,1.40
2023-04-16T13:24:30.323Z,1.90
2023-04-16T13:25:30.178Z,1.30
2023-04-16T13:26:30.307Z,1.00
2023-04-16T13:27:30.176Z,1.40
2023-04-16T13:28:30.365Z,1.50
2023-04-16T13:29:30.161Z,1.20
2023-04-16T13:30:30.262Z,0.80
2023-04-16T13:31:30.184Z,1.00
2023-04-16T13:32:30.300Z,1.20
2023-04-16T13:33:30.152Z,1.40
2023-04-16T13:34:30.277Z,0.60
2023-04-16T13:35:30.077Z,1.20
2023-04-16T13:36:30.211Z,0.90